Weather reports worldwide

Advertisment
Glasgow/Intl, United Kingdom (3140): temperature & dewpoint: 09.11.2018 05:00:00 - 15.11.2018 05:00:00 (GMT)Glasgow/Intl, United Kingdom (3140): wind speed: 09.11.2018 05:00:00 - 15.11.2018 05:00:00 (GMT)Glasgow/Intl, United Kingdom (3140): wind direction: 09.11.2018 05:00:00 - 15.11.2018 05:00:00 (GMT)Glasgow/Intl, United Kingdom (3140): visibility: 09.11.2018 05:00:00 - 15.11.2018 05:00:00 (GMT)
Date & Time tt [°C] td [°C] ff [km/h] ff [kn] dd vv [km]
15.11.2018 05:00:00 - - - - - -
15.11.2018 04:00:00 13,0 11,0 21 11 S 10
15.11.2018 03:00:00 13,0 11,0 31 17 S 10
15.11.2018 02:00:00 13,0 11,0 22 12 S 10
15.11.2018 01:00:00 13,0 11,0 26 14 SSW 10
15.11.2018 00:00:00 13,0 11,0 29 16 S 10
14.11.2018 23:00:00 13,0 11,0 28 15 S 10
14.11.2018 22:00:00 13,0 11,0 29 16 S 10
14.11.2018 21:00:00 13,0 11,0 15 8 SSW 10
14.11.2018 20:00:00 13,0 11,0 24 13 S 10
14.11.2018 19:00:00 13,0 12,0 21 11 S 10
14.11.2018 18:00:00 13,0 12,0 22 12 S 10
14.11.2018 17:00:00 14,0 12,0 29 16 S 10
14.11.2018 16:00:00 14,0 12,0 31 17 SSW 10
14.11.2018 15:00:00 14,0 12,0 26 14 S 10
14.11.2018 14:00:00 14,0 12,0 34 18 SSW 10
14.11.2018 13:00:00 14,0 12,0 29 16 SSW 4,4
14.11.2018 12:00:00 14,0 12,0 37 20 SSW 10
14.11.2018 11:00:00 14,0 12,0 35 19 S 7
14.11.2018 10:00:00 14,0 12,0 34 18 SSW 4,8
14.11.2018 09:00:00 13,0 12,0 28 15 SSW 10
14.11.2018 08:00:00 13,0 12,0 18 10 S 10
14.11.2018 07:00:00 12,0 12,0 15 8 S 6
14.11.2018 06:00:00 12,0 11,0 8 4 S 6
14.11.2018 05:00:00 11,0 11,0 13 7 SSE 10
14.11.2018 04:00:00 11,0 11,0 16 9 SSE 3,8
14.11.2018 03:00:00 11,0 10,0 16 9 S 3,4
14.11.2018 02:00:00 11,0 10,0 15 8 SSE 2,8
14.11.2018 01:00:00 11,0 10,0 13 7 S 3,5
14.11.2018 00:00:00 12,0 9,0 15 8 S 10
13.11.2018 23:00:00 11,0 9,0 15 8 SSE 10
13.11.2018 22:00:00 11,0 9,0 18 10 SSE 10
13.11.2018 21:00:00 11,0 8,0 11 6 S 10
13.11.2018 20:00:00 11,0 8,0 22 12 S 10
13.11.2018 19:00:00 10,0 7,0 9 5 SE 10
13.11.2018 18:00:00 10,0 7,0 26 14 SSW 10
13.11.2018 17:00:00 10,0 7,0 22 12 S 10
13.11.2018 16:00:00 10,0 7,0 24 13 SSW 10
13.11.2018 15:00:00 10,0 7,0 24 13 SW 10
13.11.2018 14:00:00 11,0 8,0 24 13 SSW 10
13.11.2018 13:00:00 11,0 8,0 26 14 SW 10
13.11.2018 12:00:00 11,0 8,0 26 14 WSW 10
13.11.2018 11:00:00 10,0 7,0 26 14 WSW 10
13.11.2018 10:00:00 10,0 8,0 18 10 WSW 10
13.11.2018 09:00:00 10,0 8,0 26 14 WSW 10
13.11.2018 08:00:00 9,0 8,0 22 12 SW 10
13.11.2018 07:00:00 10,0 8,0 22 12 WSW 10
13.11.2018 06:00:00 10,0 9,0 22 12 WSW 7
13.11.2018 05:00:00 9,0 8,0 18 10 SW 10
13.11.2018 04:00:00 9,0 8,0 21 11 SW 10
13.11.2018 03:00:00 9,0 8,0 13 7 SW 7
13.11.2018 02:00:00 8,0 7,0 15 8 SW 10
13.11.2018 01:00:00 8,0 7,0 9 5 SSW 10
13.11.2018 00:00:00 8,0 7,0 5 3 - 10
12.11.2018 23:00:00 8,0 7,0 8 4 S 10
12.11.2018 22:00:00 8,0 7,0 9 5 SSE 10
12.11.2018 21:00:00 10,0 7,0 13 7 SSE 10
12.11.2018 20:00:00 9,0 7,0 13 7 S 10
12.11.2018 19:00:00 9,0 7,0 15 8 SSE 10
12.11.2018 18:00:00 9,0 7,0 13 7 SE 10
12.11.2018 17:00:00 10,0 7,0 11 6 SE 10
12.11.2018 16:00:00 10,0 8,0 11 6 SE 10
12.11.2018 15:00:00 10,0 8,0 15 8 SSE 10
12.11.2018 14:00:00 11,0 8,0 15 8 SSE 10
12.11.2018 13:00:00 11,0 8,0 18 10 S 10
12.11.2018 12:00:00 11,0 8,0 13 7 SSE 10
12.11.2018 11:00:00 11,0 8,0 13 7 SE 10
12.11.2018 10:00:00 10,0 8,0 13 7 SSE 10
12.11.2018 09:00:00 9,0 7,0 13 7 SE 10
12.11.2018 08:00:00 8,0 7,0 9 5 SE 10
12.11.2018 07:00:00 7,0 6,0 11 6 SSE 10
12.11.2018 06:00:00 8,0 6,0 11 6 ESE 10
12.11.2018 05:00:00 7,0 6,0 11 6 SE 10
12.11.2018 04:00:00 8,0 6,0 13 7 ESE 10
12.11.2018 03:00:00 8,0 7,0 13 7 SE 10
12.11.2018 02:00:00 9,0 7,0 15 8 SE 10
12.11.2018 01:00:00 9,0 7,0 11 6 ESE 10
12.11.2018 00:00:00 9,0 7,0 11 6 SE 10
11.11.2018 23:00:00 8,0 7,0 15 8 ESE 10
11.11.2018 22:00:00 8,0 7,0 15 8 E 10
11.11.2018 21:00:00 7,0 6,0 11 6 E 10
11.11.2018 20:00:00 7,0 5,0 8 4 E 10
11.11.2018 19:00:00 7,0 5,0 9 5 E 10
11.11.2018 18:00:00 6,0 5,0 9 5 SE 10
11.11.2018 17:00:00 7,0 5,0 9 5 SSE 10
11.11.2018 16:00:00 8,0 7,0 5 3 - 10
11.11.2018 15:00:00 8,0 6,0 11 6 S 10
11.11.2018 14:00:00 8,0 6,0 8 4 SSW 10
11.11.2018 13:00:00 8,0 6,0 13 7 S 10
11.11.2018 12:00:00 8,0 8,0 9 5 SE 7
11.11.2018 11:00:00 8,0 7,0 11 6 ENE 10
11.11.2018 10:00:00 8,0 7,0 8 4 ENE 10
11.11.2018 09:00:00 7,0 7,0 9 5 ENE 10
11.11.2018 08:00:00 7,0 6,0 13 7 E 10
11.11.2018 07:00:00 6,0 6,0 9 5 ENE 10
11.11.2018 06:00:00 5,0 5,0 11 6 NE 0,2
11.11.2018 05:00:00 5,0 5,0 9 5 ENE 0,7
11.11.2018 04:00:00 5,0 5,0 8 4 ENE 2,6
11.11.2018 03:00:00 5,0 5,0 5 3 E 6
11.11.2018 02:00:00 5,0 4,0 8 4 ENE 5
11.11.2018 01:00:00 4,0 4,0 5 3 SSE 6
11.11.2018 00:00:00 3,0 2,0 2 1 ESE 0,3
10.11.2018 23:00:00 4,0 3,0 2 1 - 0,6
10.11.2018 22:00:00 4,0 4,0 2 1 - 1,0
10.11.2018 21:00:00 6,0 5,0 2 1 S 10
10.11.2018 20:00:00 6,0 6,0 2 1 - 10
10.11.2018 19:00:00 7,0 6,0 5 3 ESE 10
10.11.2018 18:00:00 7,0 6,0 5 3 SE 10
10.11.2018 17:00:00 8,0 6,0 13 7 SSE 10
10.11.2018 16:00:00 9,0 7,0 9 5 ESE 10
10.11.2018 15:00:00 10,0 7,0 5 3 - 10
10.11.2018 14:00:00 10,0 6,0 15 8 SSE 10
10.11.2018 13:00:00 11,0 7,0 15 8 S 10
10.11.2018 12:00:00 11,0 7,0 16 9 SSW 10
10.11.2018 11:00:00 10,0 7,0 22 12 S 10
10.11.2018 10:00:00 9,0 6,0 16 9 S 10
10.11.2018 09:00:00 9,0 7,0 15 8 S 10
10.11.2018 08:00:00 8,0 7,0 21 11 S 10
10.11.2018 07:00:00 9,0 7,0 15 8 SSW 10
10.11.2018 06:00:00 9,0 7,0 15 8 S 10
10.11.2018 05:00:00 9,0 7,0 15 8 S 6
10.11.2018 04:00:00 9,0 6,0 11 6 SE 10
10.11.2018 03:00:00 9,0 7,0 11 6 SSE 10
10.11.2018 02:00:00 10,0 8,0 9 5 SSE 10
10.11.2018 01:00:00 10,0 8,0 11 6 ESE 10
10.11.2018 00:00:00 10,0 9,0 13 7 SE 10
09.11.2018 23:00:00 10,0 8,0 29 16 SE 10
09.11.2018 22:00:00 10,0 8,0 24 13 E 10
09.11.2018 21:00:00 9,0 8,0 29 16 E 10
09.11.2018 20:00:00 10,0 7,0 28 15 ESE 10
09.11.2018 19:00:00 11,0 8,0 31 17 E 10
09.11.2018 18:00:00 11,0 7,0 26 14 ESE 10
09.11.2018 17:00:00 11,0 7,0 31 17 ESE 10
09.11.2018 16:00:00 11,0 7,0 34 18 ESE 10
09.11.2018 15:00:00 10,0 7,0 35 19 ESE 10
09.11.2018 14:00:00 11,0 7,0 34 18 ESE 10
09.11.2018 13:00:00 11,0 7,0 35 19 SE 10
09.11.2018 12:00:00 10,0 7,0 26 14 SE 10
09.11.2018 11:00:00 10,0 7,0 28 15 ESE 10
09.11.2018 10:00:00 11,0 7,0 22 12 ESE 10
09.11.2018 09:00:00 10,0 7,0 26 14 SE 10
09.11.2018 08:00:00 9,0 7,0 22 12 SE 10
09.11.2018 07:00:00 9,0 7,0 22 12 SE 10
09.11.2018 06:00:00 9,0 8,0 16 9 E 10
09.11.2018 05:00:00 9,0 8,0 13 7 ESE 10

tt = temperature
td = dewpoint
ff = wind speed
dd = wind direction
vv = visibility

Next stations